EFKK/KOK METAR and TAF weather

Enter ICAO airport designator
Station Type Date Time Source
EFKK METAR 2018/04/21 20:50 UTC NOAA

EFKK 212050Z AUTO 00000KT 9000 -RA FEW002 BKN020 BKN029 01/00 Q1004


Station Type Date Time Source
EFKK Decoded METAR 2018/04/21 20:50 UTC NOAA

Kruunupyy, Finland (EFKK) 63-43N 023-09E
Apr 21, 2018 - 04:50 PM EDT / 2018.04.21 2050 UTC
Wind: Calm:0
Visibility: 5 mile(s):0
Sky conditions: mostly cloudy
Weather: light rain
Temperature: 33 F (1 C)
Dew Point: 32 F (0 C)
Relative Humidity: 93%
Pressure (altimeter): 29.65 in. Hg (1004 hPa)
ob: EFKK 212050Z AUTO 00000KT 9000 -RA FEW002 BKN020 BKN029 01/00 Q1004
cycle: 21

Station Type Date Time Source
EFKK TAF 2013/12/22 09:42 UTC NOAA

TAF EFKK 220834Z 2209/2221 20009KT 9999 OVC007
TEMPO 2209/2211 6000 -DZ BKN003
BECMG 2211/2213 6000 RA
TEMPO 2213/2221 BKN011


Example: see airport list